EDT,Max TemperatureF,Mean TemperatureF,Min TemperatureF,Max Dew PointF,MeanDew PointF,Min DewpointF,Max Humidity, Mean Humidity, Min Humidity, Max Sea Level PressureIn, Mean Sea Level PressureIn, Min Sea Level PressureIn, Max VisibilityMiles, Mean VisibilityMiles, Min VisibilityMiles, Max Wind SpeedMPH, Mean Wind SpeedMPH, Max Gust SpeedMPH,PrecipitationIn, CloudCover, Events, WindDirDegrees
2012-3-1,57,42,28,48,29,25,93,62,50,29.94,29.79,29.59,10,10,10,23,13,34,0.00,5,,252
2012-3-2,55,39,23,50,34,19,100,77,47,29.93,29.73,29.46,10,10,9,20,3,28,0.14,3,,148
2012-3-3,55,44,33,48,27,19,77,57,42,29.80,29.67,29.49,10,10,10,23,15,34,0.11,5,,254
2012-3-4,33,30,26,27,21,18,93,69,56,29.87,29.79,29.76,10,9,0,20,7,23,0.01,8,,248
2012-3-5,32,28,23,25,20,16,93,75,55,30.39,30.08,29.87,10,9,3,14,5,22,0.00,7,,292
2012-3-6,51,33,15,23,18,10,93,59,26,30.55,30.45,30.34,10,10,10,10,3,16,0.00,3,,175
2012-3-7,66,54,41,34,26,18,45,33,27,30.43,30.35,30.22,10,10,10,20,8,33,0.00,0,,203
2012-3-8,62,52,42,52,44,36,94,70,47,30.23,30.08,29.95,10,9,5,21,11,33,1.02,6,,217
2012-3-9,42,35,28,28,23,16,86,59,36,30.36,30.25,30.18,10,10,10,21,9,31,0.31,3,,263
2012-3-10,44,32,19,21,14,10,86,49,27,30.59,30.50,30.43,10,10,10,8,4,,0.00,0,,245
2012-3-11,64,45,26,34,24,18,86,50,22,30.45,30.39,30.32,10,10,10,13,3,16,0.00,0,,220
2012-3-12,57,46,35,52,36,27,94,71,38,30.32,30.25,30.15,10,10,4,12,2,,0.21,4,,192
2012-3-13,73,64,55,55,51,43,88,69,38,30.13,30.07,30.04,10,10,10,17,10,25,0.00,5,,233
2012-3-14,73,54,35,46,41,34,100,62,33,30.26,30.19,30.14,10,10,1,14,3,,0.00,0,,223
2012-3-15,71,58,44,48,44,39,87,64,40,30.24,30.18,30.14,10,10,10,14,3,25,0.00,1,,226
2012-3-16,69,62,55,55,53,52,94,78,53,30.20,30.16,30.14,10,10,9,10,6,16,0.16,6,Thunderstorm,232
2012-3-17,77,59,41,55,46,39,100,70,29,30.28,30.23,30.17,10,6,0,13,2,18,0.00,2,,118
2012-3-18,71,63,55,57,52,50,88,68,50,30.28,30.22,30.13,10,10,10,13,4,18,0.00,5,,201
2012-3-19,75,65,55,57,55,54,94,75,47,30.20,30.16,30.13,10,10,5,10,4,,0.21,6,Thunderstorm,215
2012-3-20,78,63,48,57,53,46,100,73,44,30.25,30.19,30.15,10,8,1,7,1,,0.00,1,,67
2012-3-21,75,60,46,57,52,45,100,75,47,30.28,30.24,30.17,10,8,2,12,2,,0.00,0,,80
2012-3-22,80,62,44,57,50,43,100,70,32,30.23,30.18,30.11,10,7,0,9,1,,0.00,2,,340
2012-3-23,80,63,46,55,50,43,100,68,37,30.13,30.06,29.92,10,10,9,8,1,,0.00,0,,93
2012-3-24,64,62,59,57,55,52,94,82,68,29.96,29.89,29.84,10,9,5,9,3,,0.15,7,,158
2012-3-25,62,55,48,54,50,46,100,86,68,29.89,29.86,29.82,10,9,2,12,3,,0.00,7,,343
2012-3-26,51,44,37,46,30,14,87,58,34,30.26,30.12,29.97,10,10,8,20,8,26,0.00,2,,333
2012-3-27,53,36,21,21,16,12,86,50,22,30.38,30.33,30.21,10,10,10,8,3,,0.00,0,,55
2012-3-28,73,58,42,55,38,21,77,46,25,30.04,29.87,29.72,10,10,5,22,8,36,0.09,2,Thunderstorm,239
2012-3-29,51,46,42,37,33,30,71,59,50,30.08,30.00,29.89,10,10,10,13,8,17,0.00,5,,321
2012-3-30,64,47,30,46,33,27,93,69,51,30.10,30.00,29.79,10,10,10,10,5,,0.00,3,,86
2012-3-31,57,50,42,55,42,36,94,80,66,29.92,29.85,29.73,10,10,6,13,8,18,0.01,8,,312